Time;durP1;ratioP1;P1;durP2;ratioP2;P2;SDS_P1;SDS_P2;PMS_P1;PMS_P2;Temp;Humidity;BMP_temperature;BMP_pressure;BME280_temperature;BME280_humidity;BME280_pressure;Samples;Min_cycle;Max_cycle;Signal;HPM_P1;HPM_P2
2023/04/05 00:01:07;;;;;;;;;;;2.00;99.90;;;;;;5140250;27;19951;-49
2023/04/05 00:03:33;;;;;;;;;;;1.90;99.90;;;;;;5157529;27;19923;-45
2023/04/05 00:05:59;;;;;;;;;;;1.90;99.90;;;;;;5138286;27;20282;-46
2023/04/05 00:08:25;;;;;;;;;;;1.90;99.90;;;;;;5156602;27;20033;-45
2023/04/05 00:10:51;;;;;;;;;;;1.80;99.90;;;;;;5157445;27;20015;-49
2023/04/05 00:13:17;;;;;;;;;;;1.80;99.90;;;;;;5153788;27;20410;-48
2023/04/05 00:15:42;;;;;;;;;;;1.80;99.90;;;;;;5135968;27;19994;-46
2023/04/05 00:18:20;;;;;;;;;;;1.70;99.90;;;;;;5136467;27;19912;-53
2023/04/05 00:20:55;;;;;;;;;;;1.70;99.90;;;;;;5136735;27;19907;-46
2023/04/05 00:23:21;;;;;;;;;;;1.70;99.90;;;;;;5135719;27;19907;-50
2023/04/05 00:25:47;;;;;;;;;;;1.70;99.90;;;;;;5136370;27;20003;-50
2023/04/05 00:28:12;;;;;;;;;;;1.70;99.90;;;;;;5154737;27;19968;-51
2023/04/05 00:30:38;;;;;;;;;;;1.60;99.90;;;;;;5156304;27;19927;-47
2023/04/05 00:33:04;;;;;;;;;;;1.60;99.90;;;;;;5157104;27;19908;-49
2023/04/05 00:35:29;;;;;;;;;;;1.60;99.90;;;;;;5156091;27;19950;-48
2023/04/05 00:37:55;;;;;;;;;;;1.60;99.90;;;;;;5138578;27;19916;-45
2023/04/05 00:40:21;;;;;;;;;;;1.50;99.90;;;;;;5151295;27;19963;-46
2023/04/05 00:42:47;;;;;;;;;;;1.50;99.90;;;;;;5135667;27;20374;-47
2023/04/05 00:45:12;;;;;;;;;;;1.50;99.90;;;;;;5135298;27;19979;-50
2023/04/05 00:47:40;;;;;;;;;;;1.40;99.90;;;;;;5136061;27;19916;-45
2023/04/05 00:50:06;;;;;;;;;;;1.40;99.90;;;;;;5135919;27;19907;-44
2023/04/05 00:52:32;;;;;;;;;;;1.30;99.90;;;;;;5135012;27;19914;-50
2023/04/05 00:54:57;;;;;;;;;;;1.30;99.90;;;;;;5135908;27;19911;-49
2023/04/05 00:57:25;;;;;;;;;;;1.30;99.90;;;;;;5145873;27;19911;-50
2023/04/05 00:59:50;;;;;;;;;;;1.30;99.90;;;;;;5156638;27;19914;-50
2023/04/05 01:02:32;;;;;;;;;;;1.30;99.90;;;;;;5155959;27;19919;-50
2023/04/05 01:05:23;;;;;;;;;;;1.30;99.90;;;;;;5156047;27;19954;-49
2023/04/05 01:07:52;;;;;;;;;;;1.30;99.90;;;;;;5137618;27;20407;-50
2023/04/05 01:10:20;;;;;;;;;;;1.20;99.90;;;;;;5156301;27;19907;-50
2023/04/05 01:12:45;;;;;;;;;;;1.20;99.90;;;;;;5155578;27;19914;-51
2023/04/05 01:15:11;;;;;;;;;;;1.20;99.90;;;;;;5156132;27;19907;-50
2023/04/05 01:17:37;;;;;;;;;;;1.10;99.90;;;;;;5143007;27;19911;-49
2023/04/05 01:20:09;;;;;;;;;;;1.10;99.90;;;;;;5133769;27;19922;-50
2023/04/05 01:22:39;;;;;;;;;;;1.10;99.90;;;;;;5135421;27;19907;-47
2023/04/05 01:25:05;;;;;;;;;;;1.10;99.90;;;;;;5136296;27;20385;-48
2023/04/05 01:27:44;;;;;;;;;;;1.10;99.90;;;;;;5134284;27;19907;-50
2023/04/05 01:30:14;;;;;;;;;;;1.10;99.90;;;;;;5135121;27;19957;-49
2023/04/05 01:32:53;;;;;;;;;;;1.00;99.90;;;;;;5134536;27;19907;-51
2023/04/05 01:35:18;;;;;;;;;;;1.00;99.90;;;;;;5150332;27;19912;-49
2023/04/05 01:37:46;;;;;;;;;;;1.00;99.90;;;;;;5155820;27;19907;-49
2023/04/05 01:40:12;;;;;;;;;;;1.00;99.90;;;;;;5154979;27;19907;-51
2023/04/05 01:42:38;;;;;;;;;;;0.90;99.90;;;;;;5155628;27;19937;-50
2023/04/05 01:45:03;;;;;;;;;;;0.90;99.90;;;;;;5155042;27;20274;-49
2023/04/05 01:47:29;;;;;;;;;;;0.80;99.90;;;;;;5154702;27;19914;-49
2023/04/05 01:49:54;;;;;;;;;;;0.80;99.90;;;;;;5155717;27;20336;-48
2023/04/05 01:52:20;;;;;;;;;;;0.80;99.90;;;;;;5154592;27;19915;-48
2023/04/05 01:54:45;;;;;;;;;;;0.70;99.90;;;;;;5154277;27;19911;-47
2023/04/05 01:57:11;;;;;;;;;;;0.70;99.90;;;;;;5155333;27;20318;-49
2023/04/05 01:59:36;;;;;;;;;;;0.70;99.90;;;;;;5155316;27;19948;-51
2023/04/05 02:02:02;;;;;;;;;;;0.70;99.90;;;;;;5154366;27;20112;-49
2023/04/05 02:04:27;;;;;;;;;;;0.60;99.90;;;;;;5154858;27;19911;-48
2023/04/05 02:06:53;;;;;;;;;;;0.60;99.90;;;;;;5155290;27;19950;-51
2023/04/05 02:09:18;;;;;;;;;;;0.60;99.90;;;;;;5154420;27;19907;-50
2023/04/05 02:11:44;;;;;;;;;;;0.60;99.90;;;;;;5154982;27;19922;-50
2023/04/05 02:14:10;;;;;;;;;;;0.50;99.90;;;;;;5149411;27;19912;-49
2023/04/05 02:16:36;;;;;;;;;;;0.60;99.90;;;;;;5133854;27;19947;-49
2023/04/05 02:19:01;;;;;;;;;;;0.60;99.90;;;;;;5134438;27;19950;-49
2023/04/05 02:21:27;;;;;;;;;;;0.50;99.90;;;;;;5133936;27;19915;-46
2023/04/05 02:23:52;;;;;;;;;;;0.60;99.90;;;;;;5133471;27;19918;-48
2023/04/05 02:26:18;;;;;;;;;;;0.50;99.90;;;;;;5134116;27;19956;-49
2023/04/05 02:28:44;;;;;;;;;;;0.50;99.90;;;;;;5133643;27;20354;-50
2023/04/05 02:31:10;;;;;;;;;;;0.50;99.90;;;;;;5140788;27;20446;-48
2023/04/05 02:33:36;;;;;;;;;;;0.50;99.90;;;;;;5154905;27;19997;-48
2023/04/05 02:36:05;;;;;;;;;;;0.50;99.90;;;;;;5135378;27;20365;-48
2023/04/05 02:38:31;;;;;;;;;;;0.40;99.90;;;;;;5154610;27;20366;-49
2023/04/05 02:40:57;;;;;;;;;;;0.50;99.90;;;;;;5146326;27;20010;-50
2023/04/05 02:43:22;;;;;;;;;;;0.40;99.90;;;;;;5133072;27;19919;-51
2023/04/05 02:45:47;;;;;;;;;;;0.40;99.90;;;;;;5133860;27;19908;-50
2023/04/05 02:48:13;;;;;;;;;;;0.40;99.90;;;;;;5133841;27;19908;-50
2023/04/05 02:50:38;;;;;;;;;;;0.40;99.90;;;;;;5132513;27;20263;-51
2023/04/05 02:53:04;;;;;;;;;;;0.40;99.90;;;;;;5133631;27;19911;-48
2023/04/05 02:55:29;;;;;;;;;;;0.40;99.90;;;;;;5133579;27;19933;-52
2023/04/05 02:58:01;;;;;;;;;;;0.30;99.90;;;;;;5132946;27;20270;-51
2023/04/05 03:00:27;;;;;;;;;;;0.30;99.90;;;;;;5133588;27;20587;-48
2023/04/05 03:02:53;;;;;;;;;;;0.30;99.90;;;;;;5133402;27;19924;-51
2023/04/05 03:05:19;;;;;;;;;;;0.30;99.90;;;;;;5132760;28;19908;-47
2023/04/05 03:07:45;;;;;;;;;;;0.20;99.90;;;;;;5133598;28;20332;-50
2023/04/05 03:10:12;;;;;;;;;;;0.20;99.90;;;;;;5133320;27;19984;-49
2023/04/05 03:12:38;;;;;;;;;;;0.20;99.90;;;;;;5132806;27;19915;-49
2023/04/05 03:15:04;;;;;;;;;;;0.20;99.90;;;;;;5133620;28;19907;-50
2023/04/05 03:17:29;;;;;;;;;;;0.20;99.90;;;;;;5133485;28;20283;-49
2023/04/05 03:19:55;;;;;;;;;;;0.20;99.90;;;;;;5132762;28;20358;-49
2023/04/05 03:22:20;;;;;;;;;;;0.20;99.90;;;;;;5151166;27;19911;-50
2023/04/05 03:24:46;;;;;;;;;;;0.10;99.90;;;;;;5154974;27;19914;-50
2023/04/05 03:27:13;;;;;;;;;;;0.10;99.90;;;;;;5138792;27;19960;-49
2023/04/05 03:29:40;;;;;;;;;;;0.00;99.90;;;;;;5137622;27;19911;-49
2023/04/05 03:32:10;;;;;;;;;;;0.00;99.90;;;;;;5136587;27;20374;-49
2023/04/05 03:34:37;;;;;;;;;;;0.00;99.90;;;;;;5137385;27;19908;-48
2023/04/05 03:37:03;;;;;;;;;;;-0.10;99.90;;;;;;5137480;27;19911;-49
2023/04/05 03:39:28;;;;;;;;;;;-0.10;99.90;;;;;;5143214;27;19911;-51
2023/04/05 03:41:55;;;;;;;;;;;-0.10;99.90;;;;;;5158095;27;19907;-49
2023/04/05 03:44:21;;;;;;;;;;;0.00;99.90;;;;;;5158002;27;19958;-48
2023/04/05 03:46:46;;;;;;;;;;;0.00;99.90;;;;;;5157443;27;19941;-46
2023/04/05 03:49:12;;;;;;;;;;;-0.10;99.90;;;;;;5157501;27;20357;-49
2023/04/05 03:51:37;;;;;;;;;;;-0.10;99.90;;;;;;5157307;27;19923;-50
2023/04/05 03:54:02;;;;;;;;;;;-0.20;99.90;;;;;;5156027;27;20280;-50
2023/04/05 03:56:28;;;;;;;;;;;-0.20;99.90;;;;;;5156858;27;19919;-51
2023/04/05 03:58:53;;;;;;;;;;;-0.10;99.90;;;;;;5155004;27;20386;-51
2023/04/05 04:01:19;;;;;;;;;;;-0.20;99.90;;;;;;5135289;27;19926;-50
2023/04/05 04:03:45;;;;;;;;;;;-0.20;99.90;;;;;;5137061;27;19915;-47
2023/04/05 04:06:10;;;;;;;;;;;-0.20;99.90;;;;;;5136858;27;19908;-50
2023/04/05 04:08:36;;;;;;;;;;;-0.20;99.90;;;;;;5135865;27;19914;-50
2023/04/05 04:11:01;;;;;;;;;;;-0.20;99.90;;;;;;5136681;27;19919;-48
2023/04/05 04:13:27;;;;;;;;;;;-0.20;99.90;;;;;;5136559;27;19954;-47
2023/04/05 04:15:52;;;;;;;;;;;-0.20;99.90;;;;;;5135950;27;19973;-49
2023/04/05 04:18:17;;;;;;;;;;;-0.20;99.90;;;;;;5136601;27;19960;-50
2023/04/05 04:20:43;;;;;;;;;;;-0.20;99.90;;;;;;5136515;27;19920;-48
2023/04/05 04:23:09;;;;;;;;;;;-0.20;99.90;;;;;;5135686;27;19954;-51
2023/04/05 04:25:35;;;;;;;;;;;-0.20;99.90;;;;;;5136416;27;19911;-48
2023/04/05 04:28:02;;;;;;;;;;;-0.30;99.90;;;;;;5136313;27;19914;-49
2023/04/05 04:30:27;;;;;;;;;;;-0.30;99.90;;;;;;5149589;27;19911;-50
2023/04/05 04:32:53;;;;;;;;;;;-0.30;99.90;;;;;;5157115;27;20281;-51
2023/04/05 04:35:23;;;;;;;;;;;-0.30;99.90;;;;;;5155472;27;19914;-48
2023/04/05 04:38:02;;;;;;;;;;;-0.30;99.90;;;;;;5156021;27;19951;-50
2023/04/05 04:40:37;;;;;;;;;;;-0.30;99.90;;;;;;5142058;27;19912;-46
2023/04/05 04:43:08;;;;;;;;;;;-0.40;99.90;;;;;;5134523;27;19911;-51
2023/04/05 04:45:36;;;;;;;;;;;-0.50;99.90;;;;;;5136006;27;19932;-49
2023/04/05 04:48:03;;;;;;;;;;;-0.60;99.90;;;;;;5135996;27;19915;-48
2023/04/05 04:50:29;;;;;;;;;;;-0.60;99.90;;;;;;5135044;27;19935;-49
2023/04/05 04:52:54;;;;;;;;;;;-0.60;99.90;;;;;;5135441;27;20289;-47
2023/04/05 04:55:24;;;;;;;;;;;-0.60;99.90;;;;;;5135864;27;19960;-48
2023/04/05 04:57:50;;;;;;;;;;;-0.60;99.90;;;;;;5134621;27;19907;-49
2023/04/05 05:00:17;;;;;;;;;;;-0.60;99.90;;;;;;5135865;27;19911;-50
2023/04/05 05:02:42;;;;;;;;;;;-0.60;99.90;;;;;;5135435;27;19924;-49
2023/04/05 05:05:08;;;;;;;;;;;-0.50;99.90;;;;;;5134916;27;19933;-47
2023/04/05 05:07:35;;;;;;;;;;;-0.50;99.90;;;;;;5135736;27;20014;-50
2023/04/05 05:10:00;;;;;;;;;;;-0.50;99.90;;;;;;5143649;27;19917;-49
2023/04/05 05:12:26;;;;;;;;;;;-0.50;99.90;;;;;;5155050;27;20010;-47
2023/04/05 05:14:51;;;;;;;;;;;-0.50;99.90;;;;;;5156339;27;19914;-51
2023/04/05 05:17:17;;;;;;;;;;;-0.50;99.90;;;;;;5155999;27;19907;-52
2023/04/05 05:19:42;;;;;;;;;;;-0.50;99.90;;;;;;5149359;27;19964;-52
2023/04/05 05:22:08;;;;;;;;;;;-0.40;99.90;;;;;;5135330;27;19909;-50
2023/04/05 05:24:33;;;;;;;;;;;-0.40;99.90;;;;;;5135047;27;19907;-48
2023/04/05 05:26:59;;;;;;;;;;;-0.40;99.90;;;;;;5134972;27;19908;-49
2023/04/05 05:29:24;;;;;;;;;;;-0.40;99.90;;;;;;5134990;27;19947;-48
2023/04/05 05:31:50;;;;;;;;;;;-0.30;99.90;;;;;;5134248;27;19916;-48
2023/04/05 05:34:16;;;;;;;;;;;-0.40;99.90;;;;;;5135213;27;19953;-50
2023/04/05 05:36:41;;;;;;;;;;;-0.40;99.90;;;;;;5135177;27;19908;-51
2023/04/05 05:39:07;;;;;;;;;;;-0.40;99.90;;;;;;5152327;27;20055;-52
2023/04/05 05:41:33;;;;;;;;;;;-0.30;99.90;;;;;;5149569;27;20406;-53
2023/04/05 05:43:59;;;;;;;;;;;-0.30;99.90;;;;;;5148748;27;20432;-52
2023/04/05 05:46:24;;;;;;;;;;;-0.30;99.90;;;;;;5138615;27;19911;-52
2023/04/05 05:48:50;;;;;;;;;;;-0.30;99.90;;;;;;5139017;27;19919;-51
2023/04/05 05:51:16;;;;;;;;;;;-0.20;99.90;;;;;;5138890;27;19919;-51
2023/04/05 05:53:43;;;;;;;;;;;-0.20;99.90;;;;;;5145657;27;19950;-52
2023/04/05 05:56:09;;;;;;;;;;;-0.20;99.90;;;;;;5144067;27;19954;-48
2023/04/05 05:58:35;;;;;;;;;;;-0.20;99.90;;;;;;5148778;27;19942;-52
2023/04/05 06:01:02;;;;;;;;;;;-0.10;99.90;;;;;;5154538;27;20300;-50
2023/04/05 06:03:29;;;;;;;;;;;-0.10;99.90;;;;;;5147381;27;20290;-47
2023/04/05 06:05:55;;;;;;;;;;;0.00;99.90;;;;;;5155294;27;19932;-51
2023/04/05 06:08:21;;;;;;;;;;;0.00;99.90;;;;;;5154424;27;19952;-47
2023/04/05 06:10:46;;;;;;;;;;;0.10;99.90;;;;;;5154992;27;19911;-50
2023/04/05 06:13:12;;;;;;;;;;;0.20;99.90;;;;;;5155030;27;20005;-51
2023/04/05 06:15:37;;;;;;;;;;;0.30;99.90;;;;;;5154207;27;19914;-50
2023/04/05 06:18:03;;;;;;;;;;;0.30;99.90;;;;;;5154860;27;20285;-47
2023/04/05 06:20:28;;;;;;;;;;;0.40;99.90;;;;;;5154974;27;19913;-50
2023/04/05 06:22:54;;;;;;;;;;;0.40;99.90;;;;;;5154021;27;19914;-49
2023/04/05 06:25:19;;;;;;;;;;;0.50;99.90;;;;;;5154763;27;19954;-52
2023/04/05 06:27:45;;;;;;;;;;;0.50;99.90;;;;;;5154919;27;20432;-51
2023/04/05 06:30:11;;;;;;;;;;;0.60;99.90;;;;;;5154019;27;19917;-50
2023/04/05 06:32:36;;;;;;;;;;;0.70;99.90;;;;;;5154791;27;19915;-50
2023/04/05 06:35:04;;;;;;;;;;;0.70;99.90;;;;;;5153671;27;19936;-51
2023/04/05 06:37:30;;;;;;;;;;;0.80;99.90;;;;;;5154859;27;20268;-48
2023/04/05 06:39:55;;;;;;;;;;;0.90;99.90;;;;;;5154758;27;20032;-50
2023/04/05 06:42:21;;;;;;;;;;;0.90;99.90;;;;;;5153821;27;20315;-50
2023/04/05 06:44:46;;;;;;;;;;;1.00;99.90;;;;;;5141896;27;19918;-48
2023/04/05 06:47:12;;;;;;;;;;;1.10;99.90;;;;;;5133859;27;19933;-50
2023/04/05 06:49:37;;;;;;;;;;;1.20;99.90;;;;;;5139116;27;20399;-47
2023/04/05 06:52:05;;;;;;;;;;;1.30;99.90;;;;;;5147991;27;19919;-51
2023/04/05 06:54:32;;;;;;;;;;;1.30;99.90;;;;;;5150485;27;20013;-49
2023/04/05 06:56:57;;;;;;;;;;;1.40;99.90;;;;;;5152734;27;19917;-52
2023/04/05 06:59:22;;;;;;;;;;;1.50;99.90;;;;;;5150230;27;20002;-47
2023/04/05 07:01:48;;;;;;;;;;;1.60;99.90;;;;;;5114779;28;20002;-48
2023/04/05 07:04:14;;;;;;;;;;;1.70;99.90;;;;;;5145634;27;19907;-49
2023/04/05 07:06:39;;;;;;;;;;;1.80;99.90;;;;;;5154382;27;19915;-52
2023/04/05 07:09:05;;;;;;;;;;;1.90;99.90;;;;;;5154354;27;20371;-49
2023/04/05 07:11:31;;;;;;;;;;;2.00;99.90;;;;;;5153503;27;19925;-49
2023/04/05 07:14:00;;;;;;;;;;;2.10;99.90;;;;;;5148938;27;19907;-47
2023/04/05 07:16:25;;;;;;;;;;;2.10;99.90;;;;;;5154188;27;19915;-48
2023/04/05 07:18:51;;;;;;;;;;;2.30;99.90;;;;;;5153496;27;20003;-49
2023/04/05 07:21:16;;;;;;;;;;;2.30;99.90;;;;;;5135704;27;20434;-49
2023/04/05 07:23:42;;;;;;;;;;;2.50;99.90;;;;;;5154340;27;19908;-49
2023/04/05 07:26:07;;;;;;;;;;;2.50;99.90;;;;;;5153510;27;19915;-51
2023/04/05 07:28:34;;;;;;;;;;;2.70;99.90;;;;;;5154108;27;19914;-48
2023/04/05 07:31:00;;;;;;;;;;;2.80;99.90;;;;;;5150499;27;20370;-48
2023/04/05 07:33:26;;;;;;;;;;;2.90;99.90;;;;;;5149216;27;19910;-49
2023/04/05 07:35:53;;;;;;;;;;;3.10;99.90;;;;;;5138864;27;19923;-49
2023/04/05 07:38:18;;;;;;;;;;;3.20;99.90;;;;;;5148118;27;19999;-46
2023/04/05 07:40:44;;;;;;;;;;;3.30;99.90;;;;;;5154034;27;19911;-47
2023/04/05 07:43:09;;;;;;;;;;;3.40;99.90;;;;;;5150736;27;19937;-45
2023/04/05 07:45:35;;;;;;;;;;;3.50;99.90;;;;;;5150193;27;19911;-48
2023/04/05 07:48:00;;;;;;;;;;;3.60;99.90;;;;;;5135209;27;19915;-47
2023/04/05 07:50:26;;;;;;;;;;;3.70;99.90;;;;;;5143759;27;19915;-50
2023/04/05 07:52:51;;;;;;;;;;;3.80;99.90;;;;;;5141610;27;20293;-49
2023/04/05 07:55:17;;;;;;;;;;;3.90;99.90;;;;;;5153812;27;20014;-52
2023/04/05 07:57:42;;;;;;;;;;;4.00;99.90;;;;;;5133123;27;19964;-50
2023/04/05 08:00:11;;;;;;;;;;;4.20;99.90;;;;;;5137195;27;19915;-47
2023/04/05 08:02:36;;;;;;;;;;;4.30;99.90;;;;;;5133365;27;19971;-47
2023/04/05 08:05:02;;;;;;;;;;;4.40;99.90;;;;;;5134133;27;19912;-47
2023/04/05 08:07:28;;;;;;;;;;;4.60;99.90;;;;;;5131974;28;19922;-50
2023/04/05 08:09:56;;;;;;;;;;;4.70;99.90;;;;;;5132898;27;19919;-45
2023/04/05 08:12:22;;;;;;;;;;;4.80;99.90;;;;;;5135897;27;19938;-49
2023/04/05 08:14:47;;;;;;;;;;;4.90;99.90;;;;;;5148770;27;20295;-49
2023/04/05 08:17:13;;;;;;;;;;;5.10;99.90;;;;;;5154121;27;20484;-45
2023/04/05 08:19:39;;;;;;;;;;;5.20;99.90;;;;;;5143968;27;19919;-45
2023/04/05 08:22:04;;;;;;;;;;;5.40;99.90;;;;;;5156182;27;20426;-46
2023/04/05 08:24:30;;;;;;;;;;;5.50;99.90;;;;;;5150116;27;19911;-46
2023/04/05 08:26:55;;;;;;;;;;;5.60;99.90;;;;;;5144050;27;19912;-46
2023/04/05 08:29:21;;;;;;;;;;;5.70;99.90;;;;;;5150553;27;19964;-44
2023/04/05 08:31:46;;;;;;;;;;;5.80;99.90;;;;;;5151329;27;20269;-50
2023/04/05 08:34:12;;;;;;;;;;;6.00;99.90;;;;;;5137054;27;19911;-47
2023/04/05 08:36:37;;;;;;;;;;;6.10;99.90;;;;;;5136808;27;19911;-46
2023/04/05 08:39:02;;;;;;;;;;;6.20;99.90;;;;;;5136037;27;19912;-47
2023/04/05 08:41:36;;;;;;;;;;;6.40;99.90;;;;;;5136621;27;19907;-50
2023/04/05 08:44:05;;;;;;;;;;;6.50;99.90;;;;;;5136580;27;19915;-46
2023/04/05 08:46:32;;;;;;;;;;;6.60;99.90;;;;;;5144830;27;20353;-49
2023/04/05 08:48:58;;;;;;;;;;;6.70;99.90;;;;;;5148795;27;19911;-46
2023/04/05 08:51:25;;;;;;;;;;;6.80;99.90;;;;;;5140673;27;19923;-45
2023/04/05 08:53:51;;;;;;;;;;;6.90;99.90;;;;;;5136978;27;19911;-47
2023/04/05 08:56:23;;;;;;;;;;;7.00;99.90;;;;;;5145056;27;19911;-43
2023/04/05 08:59:03;;;;;;;;;;;7.10;99.90;;;;;;5139518;27;19911;-47
2023/04/05 09:01:29;;;;;;;;;;;7.20;99.90;;;;;;5144918;27;19966;-48
2023/04/05 09:03:59;;;;;;;;;;;7.30;99.90;;;;;;5155078;27;20288;-46
2023/04/05 09:06:26;;;;;;;;;;;7.40;99.90;;;;;;5156921;27;19919;-45
2023/04/05 09:08:52;;;;;;;;;;;7.50;94.70;;;;;;5143669;27;19916;-48
2023/04/05 09:11:19;;;;;;;;;;;7.60;91.50;;;;;;5152999;27;20269;-46
2023/04/05 09:13:44;;;;;;;;;;;7.70;94.10;;;;;;5156839;27;19911;-46
2023/04/05 09:16:10;;;;;;;;;;;7.80;91.40;;;;;;5136167;27;20006;-45
2023/04/05 09:18:35;;;;;;;;;;;7.90;90.70;;;;;;5150297;27;19907;-45
2023/04/05 09:21:02;;;;;;;;;;;8.00;90.00;;;;;;5156864;27;19907;-46
2023/04/05 09:23:28;;;;;;;;;;;8.00;76.90;;;;;;5156849;27;19997;-45
2023/04/05 09:25:53;;;;;;;;;;;8.10;74.40;;;;;;5143120;27;20369;-45
2023/04/05 09:28:19;;;;;;;;;;;8.20;83.30;;;;;;5136125;27;19911;-46
2023/04/05 09:30:45;;;;;;;;;;;8.30;92.40;;;;;;5135733;27;19960;-45
2023/04/05 09:33:14;;;;;;;;;;;8.40;82.20;;;;;;5135848;27;19923;-44
2023/04/05 09:35:39;;;;;;;;;;;8.60;90.40;;;;;;5136852;27;19961;-46
2023/04/05 09:38:05;;;;;;;;;;;8.70;76.10;;;;;;5149900;27;19958;-48
2023/04/05 09:40:42;;;;;;;;;;;8.80;87.50;;;;;;5138089;27;19907;-48
2023/04/05 09:43:07;;;;;;;;;;;8.90;83.90;;;;;;5143079;27;19912;-46
2023/04/05 09:45:41;;;;;;;;;;;8.90;82.10;;;;;;5139216;27;19907;-47
2023/04/05 09:48:07;;;;;;;;;;;9.00;79.10;;;;;;5150465;27;19963;-49
2023/04/05 09:50:32;;;;;;;;;;;9.10;81.20;;;;;;5155989;27;20273;-45
2023/04/05 09:53:15;;;;;;;;;;;9.20;82.40;;;;;;5135086;27;19913;-46
2023/04/05 09:55:41;;;;;;;;;;;9.20;79.30;;;;;;5135652;27;19996;-45
2023/04/05 09:58:10;;;;;;;;;;;9.40;66.30;;;;;;5135036;27;19907;-47
2023/04/05 10:00:36;;;;;;;;;;;9.40;69.20;;;;;;5144634;27;20502;-48
2023/04/05 10:03:03;;;;;;;;;;;9.40;61.10;;;;;;5143875;27;20002;-47
2023/04/05 10:05:31;;;;;;;;;;;9.50;65.90;;;;;;5150301;27;19918;-46
2023/04/05 10:07:56;;;;;;;;;;;9.60;69.00;;;;;;5152707;27;19911;-49
2023/04/05 10:10:22;;;;;;;;;;;9.70;69.40;;;;;;5153436;27;19914;-47
2023/04/05 10:12:48;;;;;;;;;;;9.70;64.90;;;;;;5135019;27;19916;-47
2023/04/05 10:15:14;;;;;;;;;;;9.80;68.60;;;;;;5134594;27;19946;-46
2023/04/05 10:17:50;;;;;;;;;;;9.90;71.60;;;;;;5155868;27;19959;-47
2023/04/05 10:20:15;;;;;;;;;;;10.00;70.00;;;;;;5155200;27;19906;-46
2023/04/05 10:22:50;;;;;;;;;;;10.00;76.20;;;;;;5155638;27;19907;-45
2023/04/05 10:25:18;;;;;;;;;;;10.00;57.10;;;;;;5149951;27;19919;-46
2023/04/05 10:27:46;;;;;;;;;;;10.00;62.10;;;;;;5145055;27;20338;-45
2023/04/05 10:30:12;;;;;;;;;;;10.20;67.50;;;;;;5154916;27;19973;-45
2023/04/05 10:32:42;;;;;;;;;;;10.40;73.60;;;;;;5154804;27;20354;-47
2023/04/05 10:35:09;;;;;;;;;;;10.50;70.20;;;;;;5149708;27;19926;-44
2023/04/05 10:37:54;;;;;;;;;;;10.70;68.50;;;;;;5134605;27;19939;-47
2023/04/05 10:40:21;;;;;;;;;;;10.70;71.90;;;;;;5133887;27;20010;-47
2023/04/05 10:42:46;;;;;;;;;;;10.80;70.80;;;;;;5146780;27;19911;-49
2023/04/05 10:45:14;;;;;;;;;;;10.90;70.40;;;;;;5154315;27;19952;-48
2023/04/05 10:47:45;;;;;;;;;;;11.00;69.60;;;;;;5154917;27;19950;-46
2023/04/05 10:50:15;;;;;;;;;;;11.10;64.90;;;;;;5154401;27;19911;-44
2023/04/05 10:52:41;;;;;;;;;;;11.00;59.50;;;;;;5154741;27;19922;-47
2023/04/05 10:55:08;;;;;;;;;;;11.10;60.40;;;;;;5154520;27;19915;-48
2023/04/05 10:57:35;;;;;;;;;;;11.20;59.10;;;;;;5153610;27;19911;-47
2023/04/05 11:00:01;;;;;;;;;;;11.30;60.60;;;;;;5154021;27;19913;-47
2023/04/05 11:02:27;;;;;;;;;;;11.40;63.60;;;;;;5153951;27;20002;-44
2023/04/05 11:04:56;;;;;;;;;;;11.40;58.20;;;;;;5155005;27;19907;-51
2023/04/05 11:07:22;;;;;;;;;;;11.60;60.80;;;;;;5154827;27;19907;-46
2023/04/05 11:09:53;;;;;;;;;;;11.80;65.30;;;;;;5154368;27;19907;-44
2023/04/05 11:12:19;;;;;;;;;;;11.90;62.30;;;;;;5154544;27;20456;-48
2023/04/05 11:14:44;;;;;;;;;;;11.80;60.80;;;;;;5148083;27;20010;-45
2023/04/05 11:17:26;;;;;;;;;;;11.90;63.60;;;;;;5133553;27;19911;-48
2023/04/05 11:20:01;;;;;;;;;;;12.00;61.20;;;;;;5134066;27;19964;-44
2023/04/05 11:22:27;;;;;;;;;;;12.00;58.70;;;;;;5134602;27;20031;-51
2023/04/05 11:24:53;;;;;;;;;;;12.10;60.30;;;;;;5133085;27;20347;-47
2023/04/05 11:27:27;;;;;;;;;;;12.00;53.90;;;;;;5133310;27;19912;-45
2023/04/05 11:29:53;;;;;;;;;;;11.80;62.10;;;;;;5133363;28;19999;-45
2023/04/05 11:32:19;;;;;;;;;;;11.70;52.20;;;;;;5138290;27;19923;-47
2023/04/05 11:34:56;;;;;;;;;;;11.70;56.70;;;;;;5149080;27;19916;-46
2023/04/05 11:37:22;;;;;;;;;;;11.80;56.00;;;;;;5140906;27;20478;-44
2023/04/05 11:39:47;;;;;;;;;;;11.70;53.30;;;;;;5148936;27;20001;-46
2023/04/05 11:42:15;;;;;;;;;;;11.80;55.40;;;;;;5139669;27;20278;-46
2023/04/05 11:44:41;;;;;;;;;;;11.80;51.20;;;;;;5142424;27;19911;-45
2023/04/05 11:47:07;;;;;;;;;;;12.00;55.00;;;;;;5144028;27;19934;-45
2023/04/05 11:49:32;;;;;;;;;;;12.10;55.20;;;;;;5153163;27;19911;-45
2023/04/05 11:51:58;;;;;;;;;;;12.20;61.30;;;;;;5156960;27;19968;-45
2023/04/05 11:54:33;;;;;;;;;;;12.10;69.10;;;;;;5157452;27;20332;-46
2023/04/05 11:56:58;;;;;;;;;;;12.00;67.00;;;;;;5150328;27;19957;-46
2023/04/05 11:59:31;;;;;;;;;;;12.00;56.20;;;;;;5136995;27;19911;-45
2023/04/05 12:02:04;;;;;;;;;;;12.00;55.90;;;;;;5137512;27;20412;-48
2023/04/05 12:04:30;;;;;;;;;;;12.10;59.00;;;;;;5137720;27;19950;-46
2023/04/05 12:07:15;;;;;;;;;;;12.30;59.80;;;;;;5136955;27;19947;-45
2023/04/05 12:10:00;;;;;;;;;;;12.40;57.70;;;;;;5137460;27;19916;-45
2023/04/05 12:12:25;;;;;;;;;;;12.50;55.00;;;;;;5137254;27;19923;-46
2023/04/05 12:14:51;;;;;;;;;;;12.20;52.60;;;;;;5136808;27;19907;-46
2023/04/05 12:17:16;;;;;;;;;;;12.10;51.40;;;;;;5146944;27;19911;-47
2023/04/05 12:19:42;;;;;;;;;;;11.80;63.30;;;;;;5157619;27;19914;-50
2023/04/05 12:22:07;;;;;;;;;;;11.50;56.50;;;;;;5157925;27;20429;-47
2023/04/05 12:24:33;;;;;;;;;;;11.60;58.40;;;;;;5152817;27;19912;-46
2023/04/05 12:26:59;;;;;;;;;;;11.80;59.10;;;;;;5136579;27;19947;-48
2023/04/05 12:29:24;;;;;;;;;;;12.00;56.90;;;;;;5137307;27;19957;-45
2023/04/05 12:31:50;;;;;;;;;;;12.20;51.00;;;;;;5137127;27;19981;-47
2023/04/05 12:34:22;;;;;;;;;;;12.30;52.70;;;;;;5153250;27;20408;-47
2023/04/05 12:36:47;;;;;;;;;;;12.40;55.70;;;;;;5152375;27;20453;-46
2023/04/05 12:39:15;;;;;;;;;;;12.20;55.60;;;;;;5137064;27;19912;-44
2023/04/05 12:41:40;;;;;;;;;;;12.30;54.60;;;;;;5136336;27;20346;-48
2023/04/05 12:44:15;;;;;;;;;;;12.40;55.90;;;;;;5136756;27;19907;-48
2023/04/05 12:46:41;;;;;;;;;;;12.50;56.70;;;;;;5136992;27;19911;-46
2023/04/05 12:49:11;;;;;;;;;;;12.50;49.10;;;;;;5136179;27;19932;-46
2023/04/05 12:51:41;;;;;;;;;;;12.70;48.90;;;;;;5143343;27;19919;-47
2023/04/05 12:54:06;;;;;;;;;;;12.90;52.80;;;;;;5130447;27;20266;-47
2023/04/05 12:56:32;;;;;;;;;;;12.90;52.60;;;;;;5136823;27;19908;-44
2023/04/05 12:58:57;;;;;;;;;;;13.00;50.10;;;;;;5136566;27;19907;-44
2023/04/05 13:01:23;;;;;;;;;;;13.20;53.50;;;;;;5135803;27;20440;-46
2023/04/05 13:03:50;;;;;;;;;;;13.40;51.70;;;;;;5135916;27;19953;-47
2023/04/05 13:06:15;;;;;;;;;;;13.50;46.40;;;;;;5136333;27;19968;-46
2023/04/05 13:08:41;;;;;;;;;;;13.50;50.50;;;;;;5136462;27;20463;-45
2023/04/05 13:11:06;;;;;;;;;;;13.80;51.40;;;;;;5135878;27;20292;-47
2023/04/05 13:13:33;;;;;;;;;;;14.00;48.90;;;;;;5136415;27;19918;-46
2023/04/05 13:15:58;;;;;;;;;;;14.20;49.30;;;;;;5140790;27;19919;-45
2023/04/05 13:18:24;;;;;;;;;;;14.30;51.60;;;;;;5154848;27;19911;-46
2023/04/05 13:20:50;;;;;;;;;;;14.40;45.70;;;;;;5151396;27;19988;-45
2023/04/05 13:23:15;;;;;;;;;;;14.60;49.50;;;;;;5151293;27;19955;-46
2023/04/05 13:25:41;;;;;;;;;;;14.90;52.80;;;;;;5142982;27;20372;-47
2023/04/05 13:28:07;;;;;;;;;;;15.10;51.20;;;;;;5152735;27;19917;-46
2023/04/05 13:30:32;;;;;;;;;;;15.40;48.50;;;;;;5150085;27;20319;-47
2023/04/05 13:32:58;;;;;;;;;;;15.50;45.70;;;;;;5152282;27;19919;-48
2023/04/05 13:35:23;;;;;;;;;;;15.70;45.30;;;;;;5149504;27;20341;-47
2023/04/05 13:37:49;;;;;;;;;;;15.80;46.40;;;;;;5143330;27;19911;-47
2023/04/05 13:40:17;;;;;;;;;;;16.00;44.30;;;;;;5141968;27;19911;-46
2023/04/05 13:42:43;;;;;;;;;;;16.10;52.40;;;;;;5146676;27;19929;-45
2023/04/05 13:45:09;;;;;;;;;;;15.30;48.40;;;;;;5155729;27;19907;-48
2023/04/05 13:47:35;;;;;;;;;;;15.50;45.50;;;;;;5136293;27;19915;-46
2023/04/05 13:50:01;;;;;;;;;;;15.70;46.70;;;;;;5135899;27;19914;-46
2023/04/05 13:52:27;;;;;;;;;;;15.90;46.20;;;;;;5155240;27;19923;-47
2023/04/05 13:54:52;;;;;;;;;;;16.10;48.80;;;;;;5150882;27;19934;-47
2023/04/05 13:57:18;;;;;;;;;;;16.40;46.90;;;;;;5145648;27;19911;-45
2023/04/05 13:59:43;;;;;;;;;;;16.60;52.10;;;;;;5147363;27;20003;-45
2023/04/05 14:02:10;;;;;;;;;;;16.70;49.30;;;;;;5134851;27;19972;-50
2023/04/05 14:04:38;;;;;;;;;;;16.70;42.10;;;;;;5135481;27;19908;-51
2023/04/05 14:07:05;;;;;;;;;;;16.80;44.00;;;;;;5140399;27;19911;-48
2023/04/05 14:09:31;;;;;;;;;;;16.90;47.50;;;;;;5155001;27;19907;-48
2023/04/05 14:11:57;;;;;;;;;;;17.10;42.60;;;;;;5147827;27;19973;-45
2023/04/05 14:14:23;;;;;;;;;;;17.40;49.30;;;;;;5130164;27;19915;-47
2023/04/05 14:16:48;;;;;;;;;;;17.50;46.20;;;;;;5136246;27;20300;-50
2023/04/05 14:19:15;;;;;;;;;;;17.60;37.90;;;;;;5145092;27;19918;-45
2023/04/05 14:21:41;;;;;;;;;;;17.80;37.40;;;;;;5141664;27;19970;-48